createdAt,value
2022-10-19T00:01:33.069Z,24.00
2022-10-19T00:04:35.050Z,27.50
2022-10-19T00:07:37.457Z,25.00
2022-10-19T00:10:40.942Z,24.75
2022-10-19T00:13:43.887Z,23.75
2022-10-19T00:16:47.626Z,20.25
2022-10-19T00:19:49.829Z,22.75
2022-10-19T00:22:51.857Z,24.75
2022-10-19T00:25:57.520Z,20.75
2022-10-19T00:29:00.048Z,21.25
2022-10-19T00:32:02.360Z,22.00
2022-10-19T00:35:04.627Z,23.50
2022-10-19T00:38:06.892Z,19.75
2022-10-19T00:41:09.118Z,19.00
2022-10-19T00:44:15.794Z,23.25
2022-10-19T00:47:19.561Z,23.75
2022-10-19T00:50:21.879Z,23.00
2022-10-19T00:53:26.621Z,19.25
2022-10-19T00:56:28.904Z,16.75
2022-10-19T00:59:32.312Z,19.00
2022-10-19T01:02:35.539Z,18.50
2022-10-19T01:05:38.749Z,16.25
2022-10-19T01:08:41.026Z,23.25
2022-10-19T01:11:48.854Z,20.75
2022-10-19T01:15:12.805Z,19.00
2022-10-19T01:18:27.245Z,19.50
2022-10-19T01:21:34.777Z,22.00
2022-10-19T01:24:51.570Z,21.25
2022-10-19T01:28:14.810Z,26.00
2022-10-19T01:31:49.659Z,22.00
2022-10-19T01:35:03.096Z,26.75
2022-10-19T01:38:26.972Z,22.25
2022-10-19T01:41:40.240Z,26.50
2022-10-19T01:44:44.571Z,24.50
2022-10-19T01:48:03.318Z,28.00
2022-10-19T01:51:15.144Z,33.50
2022-10-19T01:54:18.222Z,26.25
2022-10-19T01:57:26.896Z,28.75
2022-10-19T02:00:30.028Z,27.25
2022-10-19T02:03:34.352Z,24.50
2022-10-19T02:06:36.864Z,26.75
2022-10-19T02:09:38.874Z,26.50
2022-10-19T02:12:41.955Z,22.00
2022-10-19T02:15:47.746Z,26.75
2022-10-19T02:18:51.284Z,25.00
2022-10-19T02:21:54.097Z,22.25
2022-10-19T02:24:56.410Z,23.25
2022-10-19T02:27:58.631Z,22.00
2022-10-19T02:31:01.304Z,25.25
2022-10-19T02:34:03.501Z,26.75
2022-10-19T02:37:06.515Z,25.00
2022-10-19T02:40:09.670Z,25.25
2022-10-19T02:43:14.452Z,25.00
2022-10-19T02:46:36.604Z,23.25
2022-10-19T02:49:39.563Z,25.00
2022-10-19T02:52:41.697Z,25.75
2022-10-19T02:55:44.501Z,24.75
2022-10-19T02:58:46.525Z,24.50
2022-10-19T03:01:49.113Z,20.50
2022-10-19T03:04:51.424Z,24.75
2022-10-19T03:07:53.732Z,21.50
2022-10-19T03:10:59.011Z,26.00
2022-10-19T03:14:01.267Z,22.50
2022-10-19T03:17:04.143Z,22.25
2022-10-19T03:20:07.055Z,21.50
2022-10-19T03:23:09.121Z,27.00
2022-10-19T03:26:15.563Z,24.25
2022-10-19T03:29:17.577Z,20.75
2022-10-19T03:32:19.837Z,28.50
2022-10-19T03:35:21.793Z,21.00
2022-10-19T03:38:24.025Z,23.25
2022-10-19T03:41:28.541Z,24.25
2022-10-19T03:44:30.675Z,24.25
2022-10-19T03:47:33.523Z,23.50
2022-10-19T03:50:36.023Z,20.25
2022-10-19T03:53:38.501Z,22.50
2022-10-19T03:56:41.153Z,22.00
2022-10-19T03:59:43.260Z,25.25
2022-10-19T04:02:45.419Z,25.75
2022-10-19T04:05:47.477Z,21.25
2022-10-19T04:08:50.207Z,21.25
2022-10-19T04:11:52.283Z,24.25
2022-10-19T04:14:57.204Z,23.75
2022-10-19T04:17:59.777Z,26.50
2022-10-19T04:21:04.433Z,22.25
2022-10-19T04:24:09.327Z,20.00
2022-10-19T04:27:11.470Z,20.50
2022-10-19T04:30:13.540Z,23.50
2022-10-19T04:33:15.885Z,26.00
2022-10-19T04:36:18.254Z,21.50
2022-10-19T04:39:20.638Z,23.50
2022-10-19T04:42:22.679Z,18.75
2022-10-19T04:45:24.885Z,19.75
2022-10-19T04:48:26.822Z,16.00
2022-10-19T04:51:29.183Z,18.75
2022-10-19T04:54:31.241Z,23.25
2022-10-19T04:57:33.639Z,19.25
2022-10-19T05:00:38.782Z,21.50
2022-10-19T05:03:41.185Z,20.25
2022-10-19T05:06:43.251Z,21.00
2022-10-19T05:09:45.588Z,18.25
2022-10-19T05:12:47.617Z,20.75
2022-10-19T05:15:57.305Z,21.00
2022-10-19T05:18:59.827Z,19.75
2022-10-19T05:22:02.249Z,19.00
2022-10-19T05:25:05.183Z,18.00
2022-10-19T05:28:07.478Z,24.25
2022-10-19T05:31:15.377Z,23.50
2022-10-19T05:34:17.771Z,20.50
2022-10-19T05:37:19.947Z,17.00
2022-10-19T05:40:22.150Z,21.75
2022-10-19T05:43:24.177Z,23.00
2022-10-19T05:46:28.499Z,21.50
2022-10-19T05:49:30.589Z,19.75
2022-10-19T05:52:33.014Z,25.25
2022-10-19T05:55:36.146Z,21.00
2022-10-19T05:58:38.683Z,23.75
2022-10-19T06:01:40.741Z,22.00
2022-10-19T06:04:43.200Z,20.00
2022-10-19T06:07:45.317Z,20.25
2022-10-19T06:10:48.527Z,18.00
2022-10-19T06:13:52.010Z,20.00
2022-10-19T06:16:54.301Z,22.00
2022-10-19T06:19:56.320Z,20.00
2022-10-19T06:22:58.645Z,14.75
2022-10-19T06:26:05.986Z,18.00
2022-10-19T06:29:08.288Z,22.25
2022-10-19T06:32:10.333Z,16.50
2022-10-19T06:35:12.645Z,20.00
2022-10-19T06:38:14.800Z,19.50
2022-10-19T06:41:17.552Z,13.00
2022-10-19T06:44:19.799Z,18.00
2022-10-19T06:47:22.121Z,21.00
2022-10-19T06:50:24.263Z,21.50
2022-10-19T06:53:27.229Z,19.50
2022-10-19T06:56:29.703Z,18.00
2022-10-19T06:59:31.983Z,20.75
2022-10-19T07:02:34.227Z,19.50
2022-10-19T07:05:36.496Z,19.00
2022-10-19T07:08:40.662Z,16.50
2022-10-19T07:11:46.136Z,15.00
2022-10-19T07:14:48.439Z,12.00
2022-10-19T07:17:50.665Z,10.75
2022-10-19T07:21:01.067Z,11.00
2022-10-19T07:24:03.989Z,8.00
2022-10-19T07:27:06.376Z,8.75
2022-10-19T07:30:08.960Z,10.50
2022-10-19T07:33:11.062Z,6.75
2022-10-19T07:36:14.149Z,8.00
2022-10-19T07:39:17.396Z,7.25
2022-10-19T07:42:19.784Z,8.00
2022-10-19T07:45:21.920Z,9.75
2022-10-19T07:48:24.505Z,8.00
2022-10-19T07:54:29.820Z,7.25
2022-10-19T07:57:31.796Z,4.25
2022-10-19T08:00:34.125Z,7.25
2022-10-19T08:04:31.758Z,6.00
2022-10-19T08:06:58.837Z,8.50
2022-10-19T08:10:00.910Z,8.00
2022-10-19T08:13:03.156Z,10.00
2022-10-19T08:16:06.404Z,8.00
2022-10-19T08:19:14.125Z,7.00
2022-10-19T08:22:16.139Z,8.00
2022-10-19T08:25:18.580Z,6.75
2022-10-19T08:28:20.607Z,7.00
2022-10-19T08:31:23.046Z,10.00
2022-10-19T08:34:25.458Z,10.00
2022-10-19T08:37:43.792Z,8.00
2022-10-19T08:40:47.394Z,10.50
2022-10-19T08:44:09.180Z,8.00
2022-10-19T08:47:31.409Z,8.00
2022-10-19T08:50:40.128Z,8.00
2022-10-19T08:54:02.991Z,9.25
2022-10-19T08:57:29.280Z,8.00
2022-10-19T09:01:00.094Z,7.75
2022-10-19T09:04:10.488Z,8.75
2022-10-19T09:07:26.521Z,7.50
2022-10-19T09:10:38.280Z,7.75
2022-10-19T09:14:00.457Z,7.00
2022-10-19T09:17:13.100Z,4.25
2022-10-19T09:20:21.292Z,6.75
2022-10-19T09:23:30.410Z,6.00
2022-10-19T09:26:55.513Z,6.75
2022-10-19T09:29:59.642Z,2.00
2022-10-19T09:33:02.604Z,6.00
2022-10-19T09:36:06.851Z,1.50
2022-10-19T09:39:13.729Z,1.25
2022-10-19T09:42:25.960Z,1.00
2022-10-19T09:45:53.119Z,1.00
2022-10-19T09:48:55.438Z,0.00
2022-10-19T09:51:57.401Z,1.00
2022-10-19T09:55:06.874Z,0.00
2022-10-19T09:58:14.844Z,0.25
2022-10-19T10:01:41.980Z,0.00
2022-10-19T10:05:13.494Z,0.00
2022-10-19T10:08:19.538Z,0.00
2022-10-19T10:11:25.875Z,1.00
2022-10-19T10:14:33.339Z,0.00
2022-10-19T10:17:37.289Z,0.00
2022-10-19T10:21:01.439Z,1.00
2022-10-19T10:24:16.704Z,0.50
2022-10-19T10:27:30.038Z,0.50
2022-10-19T10:30:36.504Z,0.00
2022-10-19T10:33:46.267Z,0.00
2022-10-19T10:36:54.011Z,0.00
2022-10-19T10:40:00.482Z,0.75
2022-10-19T10:43:09.546Z,1.00
2022-10-19T10:46:19.573Z,1.00
2022-10-19T10:49:25.094Z,1.00
2022-10-19T10:52:29.350Z,1.00
2022-10-19T10:55:32.884Z,0.00
2022-10-19T10:58:53.621Z,1.00
2022-10-19T11:02:14.522Z,1.00
2022-10-19T11:05:23.664Z,0.50
2022-10-19T11:08:50.574Z,0.00
2022-10-19T11:11:56.127Z,1.00
2022-10-19T11:15:08.830Z,0.00
2022-10-19T11:18:22.962Z,0.25
2022-10-19T11:21:51.190Z,0.25
2022-10-19T11:25:32.525Z,1.00
2022-10-19T11:28:46.784Z,1.75
2022-10-19T11:31:56.895Z,0.00
2022-10-19T11:35:17.768Z,0.50
2022-10-19T11:38:57.444Z,0.75
2022-10-19T11:42:41.341Z,0.75
2022-10-19T11:45:52.506Z,0.00
2022-10-19T11:49:36.506Z,0.75
2022-10-19T11:53:03.267Z,1.00
2022-10-19T11:56:44.835Z,1.00
2022-10-19T12:00:38.710Z,1.00
2022-10-19T12:03:47.538Z,0.00
2022-10-19T12:07:31.532Z,0.00
2022-10-19T12:10:48.510Z,0.00
2022-10-19T12:13:57.159Z,0.50
2022-10-19T12:17:08.753Z,0.00
2022-10-19T12:20:20.113Z,0.00
2022-10-19T12:23:29.420Z,1.00
2022-10-19T12:26:34.953Z,0.25
2022-10-19T12:29:41.061Z,1.00
2022-10-19T12:33:03.653Z,0.00
2022-10-19T12:36:36.319Z,0.00
2022-10-19T12:39:43.534Z,0.00
2022-10-19T12:42:54.428Z,0.00
2022-10-19T12:46:11.229Z,0.00
2022-10-19T12:49:37.158Z,0.00
2022-10-19T12:52:48.172Z,0.00
2022-10-19T12:56:08.970Z,0.00
2022-10-19T12:59:22.954Z,0.00
2022-10-19T13:02:29.606Z,0.00
2022-10-19T13:05:33.542Z,0.00
2022-10-19T13:08:46.758Z,1.00
2022-10-19T13:12:21.351Z,0.00
2022-10-19T13:15:35.209Z,0.00
2022-10-19T13:19:15.719Z,1.00
2022-10-19T13:22:26.691Z,0.75
2022-10-19T13:25:35.418Z,0.50
2022-10-19T13:28:38.637Z,0.00
2022-10-19T13:31:41.122Z,0.00
2022-10-19T13:34:43.350Z,0.00
2022-10-19T13:37:45.728Z,0.00
2022-10-19T13:40:47.740Z,0.00
2022-10-19T13:43:51.144Z,0.00
2022-10-19T13:47:14.982Z,0.00
2022-10-19T13:50:25.737Z,0.00
2022-10-19T13:53:57.764Z,1.00
2022-10-19T13:57:38.697Z,1.25
2022-10-19T14:01:18.161Z,1.00
2022-10-19T14:04:43.568Z,0.50
2022-10-19T14:08:04.362Z,0.00
2022-10-19T14:11:16.202Z,0.00
2022-10-19T14:14:22.247Z,0.00
2022-10-19T14:17:34.091Z,0.00
2022-10-19T14:20:38.680Z,0.50
2022-10-19T14:23:41.162Z,0.00
2022-10-19T14:26:43.245Z,0.00
2022-10-19T14:29:47.759Z,0.00
2022-10-19T14:32:49.875Z,0.00
2022-10-19T14:35:52.940Z,0.00
2022-10-19T14:38:56.169Z,0.00
2022-10-19T14:42:04.656Z,0.00
2022-10-19T14:45:18.310Z,0.00
2022-10-19T14:48:20.698Z,0.00
2022-10-19T14:51:30.510Z,0.00
2022-10-19T14:54:38.942Z,1.00
2022-10-19T14:57:43.047Z,0.25
2022-10-19T15:00:48.011Z,0.00
2022-10-19T15:03:50.545Z,0.00
2022-10-19T15:06:54.028Z,0.25
2022-10-19T15:09:58.687Z,0.25
2022-10-19T15:13:03.871Z,0.00
2022-10-19T15:16:06.274Z,1.00
2022-10-19T15:19:17.403Z,0.00
2022-10-19T15:22:41.669Z,1.00
2022-10-19T15:25:43.968Z,1.00
2022-10-19T15:28:47.428Z,0.50
2022-10-19T15:31:50.591Z,1.00
2022-10-19T15:34:52.732Z,0.75
2022-10-19T15:38:27.396Z,1.00
2022-10-19T15:41:32.525Z,1.00
2022-10-19T15:44:44.421Z,1.00
2022-10-19T15:48:25.136Z,1.25
2022-10-19T15:51:27.712Z,1.00
2022-10-19T15:54:30.055Z,0.75
2022-10-19T15:57:35.007Z,1.25
2022-10-19T16:00:38.139Z,1.00
2022-10-19T16:03:40.502Z,2.00
2022-10-19T16:06:45.257Z,2.00
2022-10-19T16:09:47.675Z,1.00
2022-10-19T16:12:49.865Z,3.00
2022-10-19T16:16:01.382Z,1.00
2022-10-19T16:19:13.435Z,3.00
2022-10-19T16:22:17.157Z,1.75
2022-10-19T16:25:19.886Z,2.00
2022-10-19T16:28:23.253Z,0.75
2022-10-19T16:31:25.347Z,2.00
2022-10-19T16:34:27.973Z,3.00
2022-10-19T16:37:30.038Z,1.50
2022-10-19T16:40:32.814Z,1.50
2022-10-19T16:43:35.668Z,2.00
2022-10-19T16:46:38.610Z,2.50
2022-10-19T16:49:40.671Z,1.00
2022-10-19T16:52:43.147Z,2.00
2022-10-19T16:55:45.937Z,2.00
2022-10-19T16:58:49.590Z,1.25
2022-10-19T17:01:52.251Z,1.00
2022-10-19T17:04:54.495Z,2.00
2022-10-19T17:07:57.971Z,2.00
2022-10-19T17:11:17.022Z,2.75
2022-10-19T17:14:19.195Z,3.00
2022-10-19T17:17:21.599Z,3.25
2022-10-19T17:20:23.827Z,2.00
2022-10-19T17:23:26.298Z,2.00
2022-10-19T17:26:31.315Z,2.00
2022-10-19T17:29:33.913Z,2.00
2022-10-19T17:32:36.283Z,2.00
2022-10-19T17:35:38.703Z,5.75
2022-10-19T17:38:41.723Z,3.50
2022-10-19T17:41:45.662Z,2.00
2022-10-19T17:44:48.312Z,3.00
2022-10-19T17:47:50.720Z,2.25
2022-10-19T17:50:57.674Z,2.25
2022-10-19T17:54:02.624Z,5.00
2022-10-19T17:57:04.843Z,3.50
2022-10-19T18:00:08.130Z,2.00
2022-10-19T18:03:14.516Z,2.00
2022-10-19T18:06:23.628Z,2.50
2022-10-19T18:09:26.629Z,3.00
2022-10-19T18:12:29.543Z,4.50
2022-10-19T18:15:31.703Z,2.50
2022-10-19T18:18:36.943Z,5.25
2022-10-19T18:21:40.816Z,3.50
2022-10-19T18:24:43.243Z,4.00
2022-10-19T18:27:45.507Z,5.00
2022-10-19T18:30:47.790Z,5.00
2022-10-19T18:33:57.285Z,5.75
2022-10-19T18:37:00.826Z,5.00
2022-10-19T18:40:03.053Z,2.00
2022-10-19T18:43:06.635Z,4.75
2022-10-19T18:46:10.474Z,5.50
2022-10-19T18:49:13.282Z,4.25
2022-10-19T18:52:17.266Z,5.00
2022-10-19T18:55:21.798Z,5.00
2022-10-19T18:58:24.371Z,5.75
2022-10-19T19:01:28.507Z,5.00
2022-10-19T19:04:30.707Z,1.50
2022-10-19T19:07:33.371Z,5.00
2022-10-19T19:10:35.622Z,7.00
2022-10-19T19:13:39.042Z,4.75
2022-10-19T19:16:42.909Z,5.00
2022-10-19T19:19:45.384Z,5.00
2022-10-19T19:22:47.587Z,5.25
2022-10-19T19:25:50.042Z,6.00
2022-10-19T19:28:52.317Z,5.50
2022-10-19T19:31:54.687Z,5.75
2022-10-19T19:34:56.922Z,8.00
2022-10-19T19:38:00.056Z,8.75
2022-10-19T19:41:07.670Z,8.75
2022-10-19T19:44:10.221Z,6.00
2022-10-19T19:47:12.641Z,8.50
2022-10-19T19:50:15.363Z,9.50
2022-10-19T19:53:17.987Z,6.00
2022-10-19T19:56:21.495Z,7.00
2022-10-19T19:59:24.113Z,8.50
2022-10-19T20:02:26.957Z,9.00
2022-10-19T20:05:29.735Z,7.50
2022-10-19T20:08:32.589Z,6.25
2022-10-19T20:11:37.250Z,6.00
2022-10-19T20:14:42.645Z,8.00
2022-10-19T20:17:45.795Z,7.50
2022-10-19T20:20:49.268Z,10.25
2022-10-19T20:23:55.334Z,10.00
2022-10-19T20:26:57.828Z,9.00
2022-10-19T20:29:59.981Z,7.75
2022-10-19T20:33:20.774Z,11.00
2022-10-19T20:36:24.754Z,8.00
2022-10-19T20:39:27.312Z,10.50
2022-10-19T20:42:29.517Z,7.50
2022-10-19T20:45:31.989Z,8.50
2022-10-19T20:48:34.811Z,6.50
2022-10-19T20:51:38.012Z,5.00
2022-10-19T20:54:40.724Z,8.75
2022-10-19T20:57:43.202Z,5.25
2022-10-19T21:00:45.269Z,9.00
2022-10-19T21:03:59.187Z,5.00
2022-10-19T21:07:01.334Z,5.75
2022-10-19T21:10:03.847Z,6.50
2022-10-19T21:13:05.859Z,5.00
2022-10-19T21:16:10.051Z,8.00
2022-10-19T21:19:17.525Z,6.25
2022-10-19T21:22:19.802Z,5.25
2022-10-19T21:25:21.891Z,5.00
2022-10-19T21:28:24.115Z,7.75
2022-10-19T21:31:27.019Z,7.25
2022-10-19T21:34:31.063Z,3.50
2022-10-19T21:37:33.322Z,5.50
2022-10-19T21:40:36.526Z,5.50
2022-10-19T21:43:38.754Z,6.00
2022-10-19T21:46:42.999Z,3.75
2022-10-19T21:49:45.100Z,4.50
2022-10-19T21:52:47.341Z,2.00
2022-10-19T21:55:50.856Z,3.50
2022-10-19T21:58:54.188Z,4.00
2022-10-19T22:01:57.605Z,7.00
2022-10-19T22:05:00.002Z,5.67
2022-10-19T22:08:03.103Z,5.00
2022-10-19T22:11:07.645Z,4.50
2022-10-19T22:14:14.298Z,4.75
2022-10-19T22:17:17.513Z,5.67
2022-10-19T22:20:20.199Z,7.00
2022-10-19T22:27:27.312Z,5.00
2022-10-19T22:33:38.297Z,7.00
2022-10-19T22:36:40.803Z,5.00
2022-10-19T22:39:43.265Z,6.33
2022-10-19T22:42:45.728Z,5.00
2022-10-19T22:45:49.194Z,7.00
2022-10-19T22:48:51.681Z,4.33
2022-10-19T22:51:53.845Z,4.00
2022-10-19T22:54:56.555Z,5.00
2022-10-19T22:58:14.487Z,5.00
2022-10-19T23:01:17.080Z,8.00
2022-10-19T23:04:19.980Z,8.00
2022-10-19T23:07:22.550Z,8.67
2022-10-19T23:10:25.152Z,7.00
2022-10-19T23:13:28.677Z,7.00
2022-10-19T23:16:31.380Z,8.00
2022-10-19T23:19:34.087Z,7.67
2022-10-19T23:22:36.405Z,9.00
2022-10-19T23:25:38.751Z,7.00
2022-10-19T23:28:42.442Z,8.00
2022-10-19T23:31:48.234Z,9.33
2022-10-19T23:34:50.272Z,9.33
2022-10-19T23:37:52.376Z,11.00
2022-10-19T23:40:54.653Z,9.33
2022-10-19T23:43:59.565Z,7.00
2022-10-19T23:47:01.569Z,9.33
2022-10-19T23:50:04.002Z,5.00
2022-10-19T23:53:05.982Z,8.00
2022-10-19T23:56:23.251Z,7.33
2022-10-19T23:59:25.367Z,7.67
